sensor_id;sensor_type;location;lat;lon;timestamp;temperature;humidity
35603;DHT22;21725;50.836;4.368;2022-08-11T00:01:53;25.10;71.90
35603;DHT22;21725;50.836;4.368;2022-08-11T00:04:25;25.10;72.00
35603;DHT22;21725;50.836;4.368;2022-08-11T00:06:52;25.00;72.20
35603;DHT22;21725;50.836;4.368;2022-08-11T00:09:22;25.10;72.20
35603;DHT22;21725;50.836;4.368;2022-08-11T00:12:00;25.00;72.40
35603;DHT22;21725;50.836;4.368;2022-08-11T00:14:28;25.00;72.40
35603;DHT22;21725;50.836;4.368;2022-08-11T00:17:02;24.90;72.60
35603;DHT22;21725;50.836;4.368;2022-08-11T00:19:32;24.80;72.70
35603;DHT22;21725;50.836;4.368;2022-08-11T00:22:20;24.80;72.70
35603;DHT22;21725;50.836;4.368;2022-08-11T00:24:49;24.80;72.90
35603;DHT22;21725;50.836;4.368;2022-08-11T00:27:21;24.80;72.80
35603;DHT22;21725;50.836;4.368;2022-08-11T00:30:00;24.80;73.00
35603;DHT22;21725;50.836;4.368;2022-08-11T00:32:34;24.70;72.90
35603;DHT22;21725;50.836;4.368;2022-08-11T00:35:02;24.70;73.10
35603;DHT22;21725;50.836;4.368;2022-08-11T00:37:31;24.80;72.80
35603;DHT22;21725;50.836;4.368;2022-08-11T00:39:58;24.80;72.90
35603;DHT22;21725;50.836;4.368;2022-08-11T00:43:06;24.70;73.00
35603;DHT22;21725;50.836;4.368;2022-08-11T00:45:38;24.70;72.90
35603;DHT22;21725;50.836;4.368;2022-08-11T00:48:32;24.60;73.10
35603;DHT22;21725;50.836;4.368;2022-08-11T00:51:22;24.80;72.70
35603;DHT22;21725;50.836;4.368;2022-08-11T00:54:02;24.60;73.10
35603;DHT22;21725;50.836;4.368;2022-08-11T01:06:05;24.40;73.40
35603;DHT22;21725;50.836;4.368;2022-08-11T01:20:46;24.30;73.80
35603;DHT22;21725;50.836;4.368;2022-08-11T01:29:57;24.20;74.00
35603;DHT22;21725;50.836;4.368;2022-08-11T01:35:40;24.00;74.30
35603;DHT22;21725;50.836;4.368;2022-08-11T01:44:37;24.00;74.50
35603;DHT22;21725;50.836;4.368;2022-08-11T01:47:31;24.00;74.70
35603;DHT22;21725;50.836;4.368;2022-08-11T01:58:22;23.90;75.00
35603;DHT22;21725;50.836;4.368;2022-08-11T02:04:33;23.70;75.60
35603;DHT22;21725;50.836;4.368;2022-08-11T02:13:14;23.60;75.70
35603;DHT22;21725;50.836;4.368;2022-08-11T02:16:00;23.50;75.80
35603;DHT22;21725;50.836;4.368;2022-08-11T02:18:37;23.40;76.30
35603;DHT22;21725;50.836;4.368;2022-08-11T02:21:30;23.50;76.10
35603;DHT22;21725;50.836;4.368;2022-08-11T02:24:23;23.60;75.70
35603;DHT22;21725;50.836;4.368;2022-08-11T02:27:22;23.50;75.80
35603;DHT22;21725;50.836;4.368;2022-08-11T02:30:06;23.40;76.10
35603;DHT22;21725;50.836;4.368;2022-08-11T02:32:54;23.40;76.40
35603;DHT22;21725;50.836;4.368;2022-08-11T02:36:58;23.30;76.60
35603;DHT22;21725;50.836;4.368;2022-08-11T02:39:07;23.30;76.60
35603;DHT22;21725;50.836;4.368;2022-08-11T02:41:52;23.30;76.70
35603;DHT22;21725;50.836;4.368;2022-08-11T02:51:38;23.30;76.80
35603;DHT22;21725;50.836;4.368;2022-08-11T02:54:14;23.30;76.80
35603;DHT22;21725;50.836;4.368;2022-08-11T03:10:17;23.40;76.50
35603;DHT22;21725;50.836;4.368;2022-08-11T03:13:18;23.30;76.80
35603;DHT22;21725;50.836;4.368;2022-08-11T03:19:23;23.10;77.10
35603;DHT22;21725;50.836;4.368;2022-08-11T03:21:55;23.10;77.30
35603;DHT22;21725;50.836;4.368;2022-08-11T03:27:32;23.10;77.20
35603;DHT22;21725;50.836;4.368;2022-08-11T03:30:24;23.00;77.60
35603;DHT22;21725;50.836;4.368;2022-08-11T03:33:03;22.90;77.90
35603;DHT22;21725;50.836;4.368;2022-08-11T03:36:21;22.90;78.00
35603;DHT22;21725;50.836;4.368;2022-08-11T03:39:09;22.90;78.10
35603;DHT22;21725;50.836;4.368;2022-08-11T03:42:01;22.90;77.90
35603;DHT22;21725;50.836;4.368;2022-08-11T03:45:20;22.90;77.80
35603;DHT22;21725;50.836;4.368;2022-08-11T03:54:21;22.70;78.30
35603;DHT22;21725;50.836;4.368;2022-08-11T03:59:29;22.70;78.40
35603;DHT22;21725;50.836;4.368;2022-08-11T04:29:44;20.40;84.90
35603;DHT22;21725;50.836;4.368;2022-08-11T04:35:23;20.30;85.70
35603;DHT22;21725;50.836;4.368;2022-08-11T04:49:59;22.00;80.70
35603;DHT22;21725;50.836;4.368;2022-08-11T04:56:23;22.30;80.00
35603;DHT22;21725;50.836;4.368;2022-08-11T05:14:49;22.50;79.20
35603;DHT22;21725;50.836;4.368;2022-08-11T05:20:47;22.60;79.10
35603;DHT22;21725;50.836;4.368;2022-08-11T05:23:37;22.70;78.90
35603;DHT22;21725;50.836;4.368;2022-08-11T05:26:22;22.70;78.80
35603;DHT22;21725;50.836;4.368;2022-08-11T05:29:46;22.60;79.00
35603;DHT22;21725;50.836;4.368;2022-08-11T05:32:41;22.50;79.20
35603;DHT22;21725;50.836;4.368;2022-08-11T05:35:37;22.60;79.00
35603;DHT22;21725;50.836;4.368;2022-08-11T05:38:12;22.60;79.00
35603;DHT22;21725;50.836;4.368;2022-08-11T05:40:58;22.70;79.10
35603;DHT22;21725;50.836;4.368;2022-08-11T05:43:52;22.50;79.50
35603;DHT22;21725;50.836;4.368;2022-08-11T05:46:40;22.60;79.50
35603;DHT22;21725;50.836;4.368;2022-08-11T05:49:33;22.80;78.80
35603;DHT22;21725;50.836;4.368;2022-08-11T05:52:22;22.90;78.80
35603;DHT22;21725;50.836;4.368;2022-08-11T05:55:08;22.90;78.50
35603;DHT22;21725;50.836;4.368;2022-08-11T05:58:15;23.00;78.10
35603;DHT22;21725;50.836;4.368;2022-08-11T06:00:49;23.10;78.00
35603;DHT22;21725;50.836;4.368;2022-08-11T06:03:28;23.20;77.70
35603;DHT22;21725;50.836;4.368;2022-08-11T06:06:31;23.20;77.80
35603;DHT22;21725;50.836;4.368;2022-08-11T06:08:58;23.20;77.80
35603;DHT22;21725;50.836;4.368;2022-08-11T06:11:25;23.30;77.50
35603;DHT22;21725;50.836;4.368;2022-08-11T06:13:52;23.40;77.20
35603;DHT22;21725;50.836;4.368;2022-08-11T06:16:24;23.60;77.00
35603;DHT22;21725;50.836;4.368;2022-08-11T06:18:53;23.50;77.10
35603;DHT22;21725;50.836;4.368;2022-08-11T06:21:20;23.50;77.10
35603;DHT22;21725;50.836;4.368;2022-08-11T06:23:46;23.50;77.20
35603;DHT22;21725;50.836;4.368;2022-08-11T06:26:14;23.70;76.70
35603;DHT22;21725;50.836;4.368;2022-08-11T06:28:42;23.80;76.50
35603;DHT22;21725;50.836;4.368;2022-08-11T06:31:22;24.00;75.90
35603;DHT22;21725;50.836;4.368;2022-08-11T06:33:57;24.00;76.00
35603;DHT22;21725;50.836;4.368;2022-08-11T06:36:43;24.20;75.00
35603;DHT22;21725;50.836;4.368;2022-08-11T06:39:21;24.20;75.10
35603;DHT22;21725;50.836;4.368;2022-08-11T06:41:53;24.70;74.20
35603;DHT22;21725;50.836;4.368;2022-08-11T06:44:31;25.50;73.20
35603;DHT22;21725;50.836;4.368;2022-08-11T06:47:09;26.20;72.20
35603;DHT22;21725;50.836;4.368;2022-08-11T06:49:45;27.10;70.60
35603;DHT22;21725;50.836;4.368;2022-08-11T06:52:35;27.60;69.80
35603;DHT22;21725;50.836;4.368;2022-08-11T06:57:38;28.80;68.30
35603;DHT22;21725;50.836;4.368;2022-08-11T07:00:25;29.40;66.30
35603;DHT22;21725;50.836;4.368;2022-08-11T07:03:15;29.60;66.30
35603;DHT22;21725;50.836;4.368;2022-08-11T07:05:52;29.80;65.70
35603;DHT22;21725;50.836;4.368;2022-08-11T07:11:52;30.10;64.60
35603;DHT22;21725;50.836;4.368;2022-08-11T07:14:43;29.90;64.70
35603;DHT22;21725;50.836;4.368;2022-08-11T07:17:51;30.20;64.80
35603;DHT22;21725;50.836;4.368;2022-08-11T07:20:49;30.80;64.50
35603;DHT22;21725;50.836;4.368;2022-08-11T07:23:36;31.50;63.00
35603;DHT22;21725;50.836;4.368;2022-08-11T07:37:19;32.30;61.80
35603;DHT22;21725;50.836;4.368;2022-08-11T07:40:38;32.40;61.40
35603;DHT22;21725;50.836;4.368;2022-08-11T07:43:04;32.30;61.80
35603;DHT22;21725;50.836;4.368;2022-08-11T07:45:57;32.70;60.80
35603;DHT22;21725;50.836;4.368;2022-08-11T07:49:02;33.10;60.70
35603;DHT22;21725;50.836;4.368;2022-08-11T07:51:53;33.60;60.00
35603;DHT22;21725;50.836;4.368;2022-08-11T07:54:39;34.00;59.60
35603;DHT22;21725;50.836;4.368;2022-08-11T07:57:11;34.10;59.30
35603;DHT22;21725;50.836;4.368;2022-08-11T08:03:36;33.90;59.20
35603;DHT22;21725;50.836;4.368;2022-08-11T08:06:24;33.70;59.40
35603;DHT22;21725;50.836;4.368;2022-08-11T08:09:42;33.90;58.80
35603;DHT22;21725;50.836;4.368;2022-08-11T08:12:26;33.40;59.20
35603;DHT22;21725;50.836;4.368;2022-08-11T08:15:13;32.70;59.90
35603;DHT22;21725;50.836;4.368;2022-08-11T08:18:04;31.90;60.50
35603;DHT22;21725;50.836;4.368;2022-08-11T08:20:37;31.40;61.00
35603;DHT22;21725;50.836;4.368;2022-08-11T08:23:05;31.10;60.80
35603;DHT22;21725;50.836;4.368;2022-08-11T08:25:37;30.80;61.10
35603;DHT22;21725;50.836;4.368;2022-08-11T08:31:02;30.00;61.30
35603;DHT22;21725;50.836;4.368;2022-08-11T08:33:33;29.50;62.10
35603;DHT22;21725;50.836;4.368;2022-08-11T08:36:05;29.20;62.90
35603;DHT22;21725;50.836;4.368;2022-08-11T08:38:54;28.90;63.40
35603;DHT22;21725;50.836;4.368;2022-08-11T08:41:30;28.90;63.40
35603;DHT22;21725;50.836;4.368;2022-08-11T08:44:08;28.80;63.50
35603;DHT22;21725;50.836;4.368;2022-08-11T08:46:55;28.90;63.80
35603;DHT22;21725;50.836;4.368;2022-08-11T08:49:25;28.90;63.40
35603;DHT22;21725;50.836;4.368;2022-08-11T08:52:17;28.90;63.60
35603;DHT22;21725;50.836;4.368;2022-08-11T08:55:07;28.90;63.40
35603;DHT22;21725;50.836;4.368;2022-08-11T08:57:49;28.90;61.90
35603;DHT22;21725;50.836;4.368;2022-08-11T09:00:36;29.10;62.20
35603;DHT22;21725;50.836;4.368;2022-08-11T09:03:03;29.10;62.20
35603;DHT22;21725;50.836;4.368;2022-08-11T09:05:32;29.30;61.60
35603;DHT22;21725;50.836;4.368;2022-08-11T09:08:02;29.20;61.70
35603;DHT22;21725;50.836;4.368;2022-08-11T09:10:32;29.20;61.80
35603;DHT22;21725;50.836;4.368;2022-08-11T09:13:03;29.20;61.60
35603;DHT22;21725;50.836;4.368;2022-08-11T09:15:33;29.10;61.10
35603;DHT22;21725;50.836;4.368;2022-08-11T09:18:08;29.10;61.30
35603;DHT22;21725;50.836;4.368;2022-08-11T09:20:46;29.00;61.50
35603;DHT22;21725;50.836;4.368;2022-08-11T09:23:12;28.90;61.60
35603;DHT22;21725;50.836;4.368;2022-08-11T09:25:59;28.80;62.20
35603;DHT22;21725;50.836;4.368;2022-08-11T09:28:45;28.80;62.00
35603;DHT22;21725;50.836;4.368;2022-08-11T09:31:13;28.90;62.20
35603;DHT22;21725;50.836;4.368;2022-08-11T09:33:43;29.00;62.40
35603;DHT22;21725;50.836;4.368;2022-08-11T09:36:16;28.90;62.20
35603;DHT22;21725;50.836;4.368;2022-08-11T09:39:02;29.20;62.20
35603;DHT22;21725;50.836;4.368;2022-08-11T09:41:48;29.40;61.90
35603;DHT22;21725;50.836;4.368;2022-08-11T09:44:14;29.60;61.20
35603;DHT22;21725;50.836;4.368;2022-08-11T09:47:07;29.60;61.70
35603;DHT22;21725;50.836;4.368;2022-08-11T09:49:38;29.60;61.70
35603;DHT22;21725;50.836;4.368;2022-08-11T09:52:05;29.80;60.50
35603;DHT22;21725;50.836;4.368;2022-08-11T09:54:36;29.70;60.20
35603;DHT22;21725;50.836;4.368;2022-08-11T09:57:02;29.60;60.70
35603;DHT22;21725;50.836;4.368;2022-08-11T09:59:47;29.60;60.60
35603;DHT22;21725;50.836;4.368;2022-08-11T10:02:15;29.70;60.60
35603;DHT22;21725;50.836;4.368;2022-08-11T10:27:21;27.90;62.60
35603;DHT22;21725;50.836;4.368;2022-08-11T10:29:49;28.00;63.40
35603;DHT22;21725;50.836;4.368;2022-08-11T10:32:43;28.40;63.10
35603;DHT22;21725;50.836;4.368;2022-08-11T10:35:29;29.10;62.10
35603;DHT22;21725;50.836;4.368;2022-08-11T10:38:26;29.30;62.00
35603;DHT22;21725;50.836;4.368;2022-08-11T10:40:58;29.80;60.90
35603;DHT22;21725;50.836;4.368;2022-08-11T10:43:45;30.10;60.80
35603;DHT22;21725;50.836;4.368;2022-08-11T10:46:11;30.20;60.60
35603;DHT22;21725;50.836;4.368;2022-08-11T10:48:57;30.50;60.40
35603;DHT22;21725;50.836;4.368;2022-08-11T10:51:26;30.70;60.10
35603;DHT22;21725;50.836;4.368;2022-08-11T10:54:12;30.90;59.80
35603;DHT22;21725;50.836;4.368;2022-08-11T10:56:57;30.80;59.40
35603;DHT22;21725;50.836;4.368;2022-08-11T11:13:29;31.30;58.60
35603;DHT22;21725;50.836;4.368;2022-08-11T11:16:13;31.50;58.30
35603;DHT22;21725;50.836;4.368;2022-08-11T11:22:46;31.40;58.80
35603;DHT22;21725;50.836;4.368;2022-08-11T11:36:59;31.20;57.90
35603;DHT22;21725;50.836;4.368;2022-08-11T11:39:31;31.30;58.10
35603;DHT22;21725;50.836;4.368;2022-08-11T11:42:11;31.60;57.50
35603;DHT22;21725;50.836;4.368;2022-08-11T11:44:44;31.90;56.70
35603;DHT22;21725;50.836;4.368;2022-08-11T11:47:12;32.10;56.30
35603;DHT22;21725;50.836;4.368;2022-08-11T11:53:20;32.30;56.30
35603;DHT22;21725;50.836;4.368;2022-08-11T11:55:50;32.30;56.30
35603;DHT22;21725;50.836;4.368;2022-08-11T11:58:25;32.60;55.00
35603;DHT22;21725;50.836;4.368;2022-08-11T12:01:10;32.70;55.50
35603;DHT22;21725;50.836;4.368;2022-08-11T12:03:46;32.70;55.90
35603;DHT22;21725;50.836;4.368;2022-08-11T12:06:14;32.70;54.90
35603;DHT22;21725;50.836;4.368;2022-08-11T12:08:42;32.60;55.30
35603;DHT22;21725;50.836;4.368;2022-08-11T12:11:09;32.70;55.60
35603;DHT22;21725;50.836;4.368;2022-08-11T12:20:46;33.00;54.70
35603;DHT22;21725;50.836;4.368;2022-08-11T12:44:38;33.10;53.90
35603;DHT22;21725;50.836;4.368;2022-08-11T12:50:07;33.00;54.30
35603;DHT22;21725;50.836;4.368;2022-08-11T12:52:57;32.90;54.60
35603;DHT22;21725;50.836;4.368;2022-08-11T12:55:33;33.10;54.50
35603;DHT22;21725;50.836;4.368;2022-08-11T12:58:20;33.40;54.30
35603;DHT22;21725;50.836;4.368;2022-08-11T13:00:52;33.20;53.80
35603;DHT22;21725;50.836;4.368;2022-08-11T13:07:30;33.20;53.50
35603;DHT22;21725;50.836;4.368;2022-08-11T13:10:03;33.20;53.10
35603;DHT22;21725;50.836;4.368;2022-08-11T13:13:07;33.10;53.20
35603;DHT22;21725;50.836;4.368;2022-08-11T13:15:33;32.80;53.80
35603;DHT22;21725;50.836;4.368;2022-08-11T13:18:03;32.90;53.80
35603;DHT22;21725;50.836;4.368;2022-08-11T13:20:29;32.90;53.40
35603;DHT22;21725;50.836;4.368;2022-08-11T13:22:56;32.90;53.80
35603;DHT22;21725;50.836;4.368;2022-08-11T13:25:24;32.80;53.70
35603;DHT22;21725;50.836;4.368;2022-08-11T13:27:54;32.90;52.80
35603;DHT22;21725;50.836;4.368;2022-08-11T13:30:23;32.90;53.50
35603;DHT22;21725;50.836;4.368;2022-08-11T13:33:09;32.80;53.70
35603;DHT22;21725;50.836;4.368;2022-08-11T13:35:36;32.70;53.90
35603;DHT22;21725;50.836;4.368;2022-08-11T13:38:03;32.70;53.80
35603;DHT22;21725;50.836;4.368;2022-08-11T13:40:30;32.80;53.80
35603;DHT22;21725;50.836;4.368;2022-08-11T13:42:59;32.70;53.90
35603;DHT22;21725;50.836;4.368;2022-08-11T13:45:26;32.90;54.10
35603;DHT22;21725;50.836;4.368;2022-08-11T13:47:55;32.90;54.10
35603;DHT22;21725;50.836;4.368;2022-08-11T13:50:23;33.10;54.30
35603;DHT22;21725;50.836;4.368;2022-08-11T13:53:16;33.30;54.10
35603;DHT22;21725;50.836;4.368;2022-08-11T13:55:57;33.30;54.10
35603;DHT22;21725;50.836;4.368;2022-08-11T13:58:35;33.50;53.70
35603;DHT22;21725;50.836;4.368;2022-08-11T14:01:02;33.40;54.00
35603;DHT22;21725;50.836;4.368;2022-08-11T14:03:31;33.40;53.90
35603;DHT22;21725;50.836;4.368;2022-08-11T14:05:59;33.40;53.90
35603;DHT22;21725;50.836;4.368;2022-08-11T14:08:30;33.60;53.70
35603;DHT22;21725;50.836;4.368;2022-08-11T14:11:00;33.50;53.70
35603;DHT22;21725;50.836;4.368;2022-08-11T14:23:47;33.30;53.70
35603;DHT22;21725;50.836;4.368;2022-08-11T14:26:54;33.30;53.70
35603;DHT22;21725;50.836;4.368;2022-08-11T14:29:37;33.10;54.60
35603;DHT22;21725;50.836;4.368;2022-08-11T14:32:14;33.00;53.80
35603;DHT22;21725;50.836;4.368;2022-08-11T14:34:43;32.80;54.10
35603;DHT22;21725;50.836;4.368;2022-08-11T14:37:29;32.80;54.00
35603;DHT22;21725;50.836;4.368;2022-08-11T14:40:20;32.70;53.90
35603;DHT22;21725;50.836;4.368;2022-08-11T14:47:01;32.80;53.70
35603;DHT22;21725;50.836;4.368;2022-08-11T14:50:04;32.60;53.80
35603;DHT22;21725;50.836;4.368;2022-08-11T14:52:58;33.00;53.50
35603;DHT22;21725;50.836;4.368;2022-08-11T14:55:26;32.90;52.90
35603;DHT22;21725;50.836;4.368;2022-08-11T15:01:06;32.90;52.60
35603;DHT22;21725;50.836;4.368;2022-08-11T15:04:00;32.90;52.60
35603;DHT22;21725;50.836;4.368;2022-08-11T15:06:39;32.70;53.40
35603;DHT22;21725;50.836;4.368;2022-08-11T15:09:05;32.70;53.30
35603;DHT22;21725;50.836;4.368;2022-08-11T15:15:04;32.80;53.50
35603;DHT22;21725;50.836;4.368;2022-08-11T15:17:55;32.80;53.80
35603;DHT22;21725;50.836;4.368;2022-08-11T15:20:23;32.90;53.60
35603;DHT22;21725;50.836;4.368;2022-08-11T15:23:11;32.90;53.50
35603;DHT22;21725;50.836;4.368;2022-08-11T15:29:13;32.90;53.70
35603;DHT22;21725;50.836;4.368;2022-08-11T15:32:06;33.00;53.50
35603;DHT22;21725;50.836;4.368;2022-08-11T15:35:19;33.10;53.20
35603;DHT22;21725;50.836;4.368;2022-08-11T15:38:50;33.00;52.90
35603;DHT22;21725;50.836;4.368;2022-08-11T15:41:08;32.90;53.30
35603;DHT22;21725;50.836;4.368;2022-08-11T15:43:54;32.90;53.20
35603;DHT22;21725;50.836;4.368;2022-08-11T16:00:39;32.80;53.50
35603;DHT22;21725;50.836;4.368;2022-08-11T16:03:25;32.80;53.50
35603;DHT22;21725;50.836;4.368;2022-08-11T16:28:18;30.70;53.00
35603;DHT22;21725;50.836;4.368;2022-08-11T16:30:48;30.70;53.30
35603;DHT22;21725;50.836;4.368;2022-08-11T16:33:14;31.20;53.00
35603;DHT22;21725;50.836;4.368;2022-08-11T16:35:43;31.50;52.10
35603;DHT22;21725;50.836;4.368;2022-08-11T16:38:28;31.90;52.00
35603;DHT22;21725;50.836;4.368;2022-08-11T16:41:04;32.00;51.90
35603;DHT22;21725;50.836;4.368;2022-08-11T16:43:33;32.10;52.00
35603;DHT22;21725;50.836;4.368;2022-08-11T16:52:46;32.40;51.00
35603;DHT22;21725;50.836;4.368;2022-08-11T16:55:16;32.40;50.90
35603;DHT22;21725;50.836;4.368;2022-08-11T16:57:44;32.40;51.10
35603;DHT22;21725;50.836;4.368;2022-08-11T17:00:30;32.20;51.00
35603;DHT22;21725;50.836;4.368;2022-08-11T17:06:43;32.50;50.80
35603;DHT22;21725;50.836;4.368;2022-08-11T17:09:33;32.40;50.80
35603;DHT22;21725;50.836;4.368;2022-08-11T17:12:24;32.30;51.00
35603;DHT22;21725;50.836;4.368;2022-08-11T17:18:22;31.90;51.30
35603;DHT22;21725;50.836;4.368;2022-08-11T17:21:38;31.90;51.30
35603;DHT22;21725;50.836;4.368;2022-08-11T17:31:18;31.80;51.20
35603;DHT22;21725;50.836;4.368;2022-08-11T17:34:05;31.80;51.30
35603;DHT22;21725;50.836;4.368;2022-08-11T17:36:51;31.80;51.40
35603;DHT22;21725;50.836;4.368;2022-08-11T17:39:21;31.90;51.50
35603;DHT22;21725;50.836;4.368;2022-08-11T17:41:48;31.90;51.50
35603;DHT22;21725;50.836;4.368;2022-08-11T17:44:33;31.90;51.50
35603;DHT22;21725;50.836;4.368;2022-08-11T17:47:18;31.90;51.80
35603;DHT22;21725;50.836;4.368;2022-08-11T17:50:17;31.80;52.10
35603;DHT22;21725;50.836;4.368;2022-08-11T17:53:10;31.80;52.10
35603;DHT22;21725;50.836;4.368;2022-08-11T17:55:55;31.90;52.00
35603;DHT22;21725;50.836;4.368;2022-08-11T17:59:00;31.70;52.40
35603;DHT22;21725;50.836;4.368;2022-08-11T18:01:46;31.80;52.40
35603;DHT22;21725;50.836;4.368;2022-08-11T18:04:14;31.70;52.60
35603;DHT22;21725;50.836;4.368;2022-08-11T18:06:52;31.60;52.70
35603;DHT22;21725;50.836;4.368;2022-08-11T18:09:19;31.60;52.80
35603;DHT22;21725;50.836;4.368;2022-08-11T18:12:06;31.50;53.00
35603;DHT22;21725;50.836;4.368;2022-08-11T18:14:53;31.50;53.10
35603;DHT22;21725;50.836;4.368;2022-08-11T18:17:53;31.50;53.10
35603;DHT22;21725;50.836;4.368;2022-08-11T18:20:37;31.40;53.30
35603;DHT22;21725;50.836;4.368;2022-08-11T18:23:22;31.50;53.30
35603;DHT22;21725;50.836;4.368;2022-08-11T18:26:18;31.50;53.30
35603;DHT22;21725;50.836;4.368;2022-08-11T18:29:18;31.50;53.60
35603;DHT22;21725;50.836;4.368;2022-08-11T18:32:03;31.30;53.70
35603;DHT22;21725;50.836;4.368;2022-08-11T18:34:49;31.30;53.80
35603;DHT22;21725;50.836;4.368;2022-08-11T18:37:36;31.10;54.00
35603;DHT22;21725;50.836;4.368;2022-08-11T18:40:25;31.10;54.10
35603;DHT22;21725;50.836;4.368;2022-08-11T18:43:11;31.20;54.00
35603;DHT22;21725;50.836;4.368;2022-08-11T18:46:04;31.10;54.10
35603;DHT22;21725;50.836;4.368;2022-08-11T18:48:56;31.10;54.30
35603;DHT22;21725;50.836;4.368;2022-08-11T18:51:45;30.90;54.30
35603;DHT22;21725;50.836;4.368;2022-08-11T18:54:30;30.80;54.50
35603;DHT22;21725;50.836;4.368;2022-08-11T18:57:16;30.80;54.40
35603;DHT22;21725;50.836;4.368;2022-08-11T19:00:02;31.00;54.60
35603;DHT22;21725;50.836;4.368;2022-08-11T19:02:47;30.80;54.80
35603;DHT22;21725;50.836;4.368;2022-08-11T19:05:34;30.70;55.10
35603;DHT22;21725;50.836;4.368;2022-08-11T19:08:20;30.60;55.30
35603;DHT22;21725;50.836;4.368;2022-08-11T19:11:06;30.60;55.60
35603;DHT22;21725;50.836;4.368;2022-08-11T19:13:51;30.60;55.70
35603;DHT22;21725;50.836;4.368;2022-08-11T19:16:37;30.60;55.80
35603;DHT22;21725;50.836;4.368;2022-08-11T19:19:22;30.40;56.10
35603;DHT22;21725;50.836;4.368;2022-08-11T19:22:12;30.30;56.30
35603;DHT22;21725;50.836;4.368;2022-08-11T19:25:06;30.30;56.50
35603;DHT22;21725;50.836;4.368;2022-08-11T19:28:03;30.20;56.60
35603;DHT22;21725;50.836;4.368;2022-08-11T19:30:48;30.10;56.80
35603;DHT22;21725;50.836;4.368;2022-08-11T19:33:32;30.00;57.00
35603;DHT22;21725;50.836;4.368;2022-08-11T19:36:17;29.90;57.20
35603;DHT22;21725;50.836;4.368;2022-08-11T19:39:02;29.90;57.30
35603;DHT22;21725;50.836;4.368;2022-08-11T19:41:47;29.80;57.40
35603;DHT22;21725;50.836;4.368;2022-08-11T19:44:31;29.90;57.30
35603;DHT22;21725;50.836;4.368;2022-08-11T19:47:25;30.00;57.40
35603;DHT22;21725;50.836;4.368;2022-08-11T19:50:09;29.90;57.40
35603;DHT22;21725;50.836;4.368;2022-08-11T19:53:07;29.70;57.70
35603;DHT22;21725;50.836;4.368;2022-08-11T19:55:55;29.70;57.70
35603;DHT22;21725;50.836;4.368;2022-08-11T19:58:39;29.60;57.90
35603;DHT22;21725;50.836;4.368;2022-08-11T20:01:35;29.50;58.10
35603;DHT22;21725;50.836;4.368;2022-08-11T20:04:19;29.60;57.90
35603;DHT22;21725;50.836;4.368;2022-08-11T20:07:03;29.50;57.90
35603;DHT22;21725;50.836;4.368;2022-08-11T20:09:53;29.40;58.10
35603;DHT22;21725;50.836;4.368;2022-08-11T20:12:38;29.40;58.40
35603;DHT22;21725;50.836;4.368;2022-08-11T20:15:33;29.40;58.30
35603;DHT22;21725;50.836;4.368;2022-08-11T20:18:20;29.40;58.50
35603;DHT22;21725;50.836;4.368;2022-08-11T20:21:04;29.20;58.70
35603;DHT22;21725;50.836;4.368;2022-08-11T20:23:51;28.90;58.70
35603;DHT22;21725;50.836;4.368;2022-08-11T20:26:35;29.00;58.80
35603;DHT22;21725;50.836;4.368;2022-08-11T20:29:23;29.00;58.90
35603;DHT22;21725;50.836;4.368;2022-08-11T20:32:09;28.90;58.90
35603;DHT22;21725;50.836;4.368;2022-08-11T20:34:54;29.00;59.00
35603;DHT22;21725;50.836;4.368;2022-08-11T20:37:40;29.00;59.00
35603;DHT22;21725;50.836;4.368;2022-08-11T20:40:26;28.90;59.10
35603;DHT22;21725;50.836;4.368;2022-08-11T20:43:14;28.90;58.90
35603;DHT22;21725;50.836;4.368;2022-08-11T20:46:01;28.90;59.20
35603;DHT22;21725;50.836;4.368;2022-08-11T20:48:48;28.90;59.20
35603;DHT22;21725;50.836;4.368;2022-08-11T20:51:37;28.70;59.40
35603;DHT22;21725;50.836;4.368;2022-08-11T20:54:25;28.70;59.30
35603;DHT22;21725;50.836;4.368;2022-08-11T20:57:11;28.80;59.30
35603;DHT22;21725;50.836;4.368;2022-08-11T20:59:57;28.70;59.40
35603;DHT22;21725;50.836;4.368;2022-08-11T21:02:46;28.60;59.50
35603;DHT22;21725;50.836;4.368;2022-08-11T21:05:34;28.60;59.60
35603;DHT22;21725;50.836;4.368;2022-08-11T21:11:31;28.50;59.70
35603;DHT22;21725;50.836;4.368;2022-08-11T21:14:22;28.40;59.90
35603;DHT22;21725;50.836;4.368;2022-08-11T21:17:25;28.40;60.10
35603;DHT22;21725;50.836;4.368;2022-08-11T21:20:17;28.40;60.00
35603;DHT22;21725;50.836;4.368;2022-08-11T21:23:09;28.40;60.00
35603;DHT22;21725;50.836;4.368;2022-08-11T21:26:02;28.40;59.90
35603;DHT22;21725;50.836;4.368;2022-08-11T21:28:56;28.50;59.60
35603;DHT22;21725;50.836;4.368;2022-08-11T21:31:42;28.50;59.70
35603;DHT22;21725;50.836;4.368;2022-08-11T21:34:28;28.30;60.00
35603;DHT22;21725;50.836;4.368;2022-08-11T21:37:14;28.30;60.10
35603;DHT22;21725;50.836;4.368;2022-08-11T21:40:00;28.30;60.00
35603;DHT22;21725;50.836;4.368;2022-08-11T21:42:47;28.20;60.30
35603;DHT22;21725;50.836;4.368;2022-08-11T21:45:34;28.10;60.30
35603;DHT22;21725;50.836;4.368;2022-08-11T21:48:20;28.00;60.50
35603;DHT22;21725;50.836;4.368;2022-08-11T21:51:06;28.10;60.30
35603;DHT22;21725;50.836;4.368;2022-08-11T21:53:50;28.10;60.20
35603;DHT22;21725;50.836;4.368;2022-08-11T21:56:36;28.00;60.60
35603;DHT22;21725;50.836;4.368;2022-08-11T21:59:26;28.00;60.70
35603;DHT22;21725;50.836;4.368;2022-08-11T22:02:15;27.90;60.80
35603;DHT22;21725;50.836;4.368;2022-08-11T22:05:01;27.70;61.20
35603;DHT22;21725;50.836;4.368;2022-08-11T22:28:51;25.30;65.30
35603;DHT22;21725;50.836;4.368;2022-08-11T22:31:37;25.10;65.90
35603;DHT22;21725;50.836;4.368;2022-08-11T22:34:40;25.40;65.40
35603;DHT22;21725;50.836;4.368;2022-08-11T22:37:33;25.90;64.70
35603;DHT22;21725;50.836;4.368;2022-08-11T22:40:21;26.20;64.00
35603;DHT22;21725;50.836;4.368;2022-08-11T22:43:15;26.40;63.60
35603;DHT22;21725;50.836;4.368;2022-08-11T22:45:59;26.50;63.40
35603;DHT22;21725;50.836;4.368;2022-08-11T22:48:44;26.70;63.10
35603;DHT22;21725;50.836;4.368;2022-08-11T22:51:29;26.90;62.90
35603;DHT22;21725;50.836;4.368;2022-08-11T22:54:35;26.90;62.80
35603;DHT22;21725;50.836;4.368;2022-08-11T22:57:20;26.90;62.90
35603;DHT22;21725;50.836;4.368;2022-08-11T23:00:06;26.80;63.10
35603;DHT22;21725;50.836;4.368;2022-08-11T23:02:51;26.80;63.00
35603;DHT22;21725;50.836;4.368;2022-08-11T23:05:37;26.80;63.00
35603;DHT22;21725;50.836;4.368;2022-08-11T23:08:22;26.80;62.90
35603;DHT22;21725;50.836;4.368;2022-08-11T23:11:07;26.80;63.10
35603;DHT22;21725;50.836;4.368;2022-08-11T23:13:54;26.80;63.10
35603;DHT22;21725;50.836;4.368;2022-08-11T23:16:41;26.80;63.40
35603;DHT22;21725;50.836;4.368;2022-08-11T23:19:27;26.80;63.10
35603;DHT22;21725;50.836;4.368;2022-08-11T23:22:11;26.90;62.90